Aeroporto :
LOGIN :

Iscrizione | Disclaimer

   EN    FR    IT 

 










Sommario :    VFR   VFR Marginale   IFR   IFR Intensivo   IFR Molto Intensivo
Visibilità : 
Base nubi : 
>= 8 km
>= 3000ft
5 / 8 km
1000 / 3000 ft
1500m / 5 km
500 / 1000 ft
800 / 1500m
200 / 500 ft
< 800m
< 200 ft
Simboli :   Temporali  Nebbia  Neve Forte  Precipitazioni Forti  Vento > 20 kt
SIGMETs :   Varie  Temporali  Ghiacco  Turbolenza  Onda orograficha  Ceneri Vulcaniche






- Altitudine del aeroporto : 423 ft
- Codice IATA : PIS


LFBI - Poitiers

ULTIMO METAR :
  • 180600Z AUTO 23011KT 9999 FEW026/// BKN037/// BKN072/// ///TCU 13/12 Q1011 TEMPO 4000 SHRA

METARs OBSOLETI :
  • 180530Z AUTO 24015KT 9999 FEW013/// SCT044/// BKN054/// ///TCU 14/12 Q1011 TEMPO 4000 SHRA
  • 180500Z AUTO 21012KT 9999 FEW026/// SCT039/// BKN046/// ///TCU 14/12 Q1011 TEMPO 21015G25KT 4000 SHRA BKN010
  • 180430Z AUTO 22014KT 9999 FEW016 SCT074 14/12 Q1011 TEMPO 21015G25KT 4000 SHRA BKN020TCU
  • 180400Z AUTO 21016KT 9999 FEW014 BKN064 BKN078 14/12 Q1010 TEMPO 21015G25KT BKN010
  • 180330Z AUTO 20015KT 9999 SCT016 SCT042 BKN076 14/13 Q1010 TEMPO 21015G25KT BKN010

TAF TAF LFBI
Valido dal 18 a 06 ore il 19 a 06 ore UTC


180500Z 1806/1906 21015KT 9999 BKN030
BECMG 1808/1810 20010KT
PROB30
TEMPO 1806/1814 4000 SHRA BKN020TCU
TEMPO 1902/1906 4000 RA OVC010



MetMap, La meteo Aeronautica in un colpo d'occhio ! - Copyright ORBIFLY Dicembre 2007 - Disclaimer

ORBIFLY MET'MAP TEAM :

Programmazione e sviluppo : Alexandra Zaïnal
Concezione e sviluppo : Baudouin d'Aumeries
Co-Programmazione e sviluppo : Marc-Olivier Méhu
Supporto tecnico e logistico : Manuel Goepfert
Aiuto per la traduzione : Arnaldo La Scala

Contatto : metmap@orbifly.com




FONTI E CREDITI :

   NOAA